Time;durP1;ratioP1;P1;durP2;ratioP2;P2;SDS_P1;SDS_P2;PMS_P1;PMS_P2;Temp;Humidity;BMP_temperature;BMP_pressure;BME280_temperature;BME280_humidity;BME280_pressure;Samples;Min_cycle;Max_cycle;Signal;HPM_P1;HPM_P2
2022/04/21 00:04:08;;;;;;;7.97;3.67;;;;;;;9.12;51.42;100300.56;8467306;34;20846;-74
2022/04/21 00:09:11;;;;;;;4.90;3.50;;;;;;;9.09;51.76;100296.31;8465705;33;20512;-73
2022/04/21 00:14:15;;;;;;;6.45;3.70;;;;;;;8.95;51.92;100292.00;8465398;34;20160;-73
2022/04/21 00:19:18;;;;;;;4.85;3.17;;;;;;;8.82;52.48;100285.84;8466083;33;20536;-74
2022/04/21 00:24:21;;;;;;;4.78;3.13;;;;;;;8.91;52.82;100286.97;8464591;33;20582;-74
2022/04/21 00:29:26;;;;;;;5.25;2.70;;;;;;;8.96;52.23;100280.28;8469123;33;20594;-73
2022/04/21 00:34:29;;;;;;;3.38;3.05;;;;;;;8.90;52.55;100291.47;8469200;34;20247;-73
2022/04/21 00:39:33;;;;;;;5.00;3.42;;;;;;;8.80;52.72;100285.09;8469352;33;20523;-73
2022/04/21 00:44:38;;;;;;;6.18;3.40;;;;;;;8.80;53.13;100274.38;8463287;34;20157;-74
2022/04/21 00:49:42;;;;;;;4.70;2.90;;;;;;;8.82;53.22;100267.09;8464142;33;20482;-74
2022/04/21 00:54:45;;;;;;;5.93;3.13;;;;;;;8.71;53.26;100265.22;8467846;34;20614;-74
2022/04/21 00:59:49;;;;;;;3.70;2.92;;;;;;;8.66;53.30;100277.25;8467787;33;20546;-74
2022/04/21 01:04:53;;;;;;;4.28;2.70;;;;;;;8.53;53.81;100267.47;8469019;33;20530;-75
2022/04/21 01:09:56;;;;;;;5.82;3.58;;;;;;;8.48;53.99;100266.09;8469045;33;21055;-74
2022/04/21 01:15:01;;;;;;;2.80;2.40;;;;;;;8.36;54.56;100254.44;8470528;34;20450;-74
2022/04/21 01:20:06;;;;;;;3.15;2.85;;;;;;;8.32;54.74;100256.50;8468007;33;20444;-74
2022/04/21 01:25:11;;;;;;;3.53;2.78;;;;;;;8.28;55.01;100256.81;8465463;34;20635;-74
2022/04/21 01:30:15;;;;;;;3.47;2.95;;;;;;;8.27;55.44;100249.75;8464766;33;20595;-74
2022/04/21 01:35:19;;;;;;;6.20;3.28;;;;;;;8.24;55.28;100250.00;8441185;34;20448;-74
2022/04/21 01:45:44;;;;;;;3.58;2.88;;;;;;;8.14;55.77;100223.03;8465286;34;20652;-74
2022/04/21 01:50:47;;;;;;;3.17;2.80;;;;;;;8.07;56.59;100230.69;8465989;33;20425;-74
2022/04/21 01:55:52;;;;;;;3.45;3.15;;;;;;;8.05;56.19;100223.72;8468053;34;20427;-74
2022/04/21 02:00:55;;;;;;;4.35;3.22;;;;;;;8.03;56.45;100225.66;8444576;34;20556;-74
2022/04/21 02:05:58;;;;;;;3.95;3.20;;;;;;;7.93;56.84;100218.31;8466542;34;20518;-74
2022/04/21 02:11:03;;;;;;;3.92;3.38;;;;;;;7.84;56.87;100224.31;8464189;33;20999;-75
2022/04/21 02:16:06;;;;;;;5.90;3.40;;;;;;;7.68;58.03;100224.56;8436191;34;20688;-73
2022/04/21 02:21:09;;;;;;;4.35;3.45;;;;;;;7.68;57.94;100221.06;8459201;33;20241;-74
2022/04/21 02:26:14;;;;;;;3.92;3.30;;;;;;;7.62;57.92;100214.28;8432580;34;20423;-74
2022/04/21 02:31:17;;;;;;;6.72;4.07;;;;;;;7.54;58.76;100213.13;8454684;33;20158;-73
2022/04/21 02:36:20;;;;;;;4.85;3.55;;;;;;;7.48;58.27;100209.94;8452917;34;20149;-73
2022/04/21 02:41:25;;;;;;;3.95;3.50;;;;;;;7.40;58.46;100217.63;8455809;33;20191;-73
2022/04/21 02:46:30;;;;;;;5.20;3.90;;;;;;;7.42;58.59;100214.88;8454519;34;20481;-74
2022/04/21 02:51:35;;;;;;;5.80;3.88;;;;;;;7.34;58.69;100222.56;8459043;33;20149;-73
2022/04/21 03:02:00;;;;;;;6.90;4.40;;;;;;;7.19;59.25;100212.00;8596086;27;20523;-72
2022/04/21 03:07:04;;;;;;;5.20;4.10;;;;;;;7.17;59.46;100218.41;8592378;33;20944;-72
2022/04/21 03:12:10;;;;;;;5.28;4.32;;;;;;;7.06;59.94;100216.47;8592876;33;20148;-74
2022/04/21 03:17:13;;;;;;;5.15;3.88;;;;;;;6.92;60.19;100217.44;8592312;33;20571;-74
2022/04/21 03:27:39;;;;;;;5.05;4.35;;;;;;;6.78;60.68;100206.81;8580444;33;20434;-74
2022/04/21 03:32:42;;;;;;;5.60;3.90;;;;;;;6.67;60.83;100212.88;8580987;33;20152;-73
2022/04/21 03:37:45;;;;;;;6.25;4.50;;;;;;;6.53;60.86;100207.63;8575513;33;20449;-73
2022/04/21 03:42:50;;;;;;;6.82;4.30;;;;;;;6.51;61.39;100209.53;8574553;33;20401;-73
2022/04/21 03:47:53;;;;;;;5.78;4.30;;;;;;;6.46;61.36;100204.47;8576747;33;20201;-73
2022/04/21 03:52:56;;;;;;;6.00;4.30;;;;;;;6.47;61.39;100200.84;8582415;33;20179;-72
2022/04/21 03:58:00;;;;;;;6.20;4.80;;;;;;;6.35;61.76;100205.19;8580410;33;20628;-73
2022/04/21 04:03:03;;;;;;;7.07;4.85;;;;;;;6.29;61.74;100200.28;8579341;33;20428;-73
2022/04/21 04:13:29;;;;;;;6.10;4.47;;;;;;;6.32;62.29;100201.88;8578264;33;20132;-73
2022/04/21 04:18:33;;;;;;;8.70;4.88;;;;;;;6.24;62.36;100199.72;8577306;33;20534;-73
2022/04/21 04:23:36;;;;;;;10.30;4.65;;;;;;;6.28;62.51;100195.91;8578915;33;20400;-73
2022/04/21 04:28:41;;;;;;;6.30;4.82;;;;;;;6.28;62.48;100195.03;8576180;33;20422;-72
2022/04/21 04:33:44;;;;;;;7.57;4.75;;;;;;;6.26;62.51;100195.13;8569085;33;20251;-72
2022/04/21 04:38:48;;;;;;;5.95;4.82;;;;;;;6.33;62.46;100195.56;8569471;33;20148;-74
2022/04/21 04:43:53;;;;;;;7.53;5.05;;;;;;;6.30;62.57;100203.78;8575702;33;20403;-74
2022/04/21 04:48:56;;;;;;;8.63;5.00;;;;;;;6.30;62.62;100201.97;8582264;33;20144;-72
2022/04/21 04:54:00;;;;;;;9.27;5.60;;;;;;;6.30;62.90;100206.47;8587131;33;20198;-72
2022/04/21 04:59:05;;;;;;;6.45;5.60;;;;;;;6.30;62.82;100215.31;8580481;33;20136;-72
2022/04/21 05:04:10;;;;;;;7.35;5.63;;;;;;;6.28;62.96;100217.25;8577181;33;20551;-72
2022/04/21 05:09:15;;;;;;;8.50;6.18;;;;;;;6.26;63.19;100218.31;8575856;33;20888;-73
2022/04/21 05:14:21;;;;;;;7.82;5.15;;;;;;;6.22;63.18;100211.44;8575386;33;20821;-73
2022/04/21 05:19:25;;;;;;;9.35;5.30;;;;;;;6.26;63.50;100204.97;8574140;33;20174;-72
2022/04/21 05:24:30;;;;;;;7.20;5.50;;;;;;;6.30;63.42;100223.31;8575654;33;20241;-72
2022/04/21 05:34:58;;;;;;;7.13;4.95;;;;;;;6.52;62.89;100219.22;8575222;33;20542;-72
2022/04/21 05:40:02;;;;;;;7.22;6.18;;;;;;;6.52;62.71;100213.88;8574005;33;20183;-72
2022/04/21 05:45:09;;;;;;;11.90;6.25;;;;;;;6.53;62.36;100216.47;8578092;33;20528;-73
2022/04/21 05:50:15;;;;;;;8.57;6.20;;;;;;;6.54;62.56;100207.50;8580665;33;20423;-73
2022/04/21 05:55:19;;;;;;;7.18;5.50;;;;;;;6.56;62.24;100226.09;8581695;33;20293;-73
2022/04/21 06:00:23;;;;;;;7.25;5.20;;;;;;;6.60;62.29;100223.09;8580918;33;20143;-72
2022/04/21 06:05:26;;;;;;;10.05;6.15;;;;;;;6.60;62.07;100228.44;8580627;33;20931;-72
2022/04/21 06:10:30;;;;;;;7.43;4.00;;;;;;;6.72;61.93;100221.44;8580653;33;20417;-73
2022/04/21 06:15:34;;;;;;;9.63;4.22;;;;;;;6.99;61.40;100223.19;8574739;33;20267;-72
2022/04/21 06:20:37;;;;;;;9.68;4.03;;;;;;;7.21;60.53;100228.78;8518296;33;20668;-73
2022/04/21 06:25:40;;;;;;;10.38;4.65;;;;;;;7.43;59.98;100221.91;8516726;33;20528;-73
2022/04/21 06:30:45;;;;;;;7.85;4.38;;;;;;;7.77;58.85;100231.09;8513377;33;20435;-72
2022/04/21 06:35:51;;;;;;;9.48;4.63;;;;;;;8.10;57.64;100229.59;8511206;33;20412;-73
2022/04/21 06:40:55;;;;;;;5.70;4.38;;;;;;;8.64;56.98;100225.63;8514071;33;20492;-72
2022/04/21 06:51:20;;;;;;;7.13;4.72;;;;;;;9.03;55.08;100211.88;8515199;33;20144;-73
2022/04/21 06:56:23;;;;;;;7.60;4.97;;;;;;;9.20;54.20;100213.25;8514619;33;20450;-73
2022/04/21 07:01:31;;;;;;;5.55;4.72;;;;;;;9.40;54.11;100213.50;8511682;33;20418;-72
2022/04/21 07:06:34;;;;;;;7.35;4.55;;;;;;;9.35;53.33;100211.22;8514024;33;20144;-73
2022/04/21 07:11:38;;;;;;;7.00;4.72;;;;;;;9.10;53.63;100216.75;8514149;33;20148;-73
2022/04/21 07:16:43;;;;;;;6.30;4.85;;;;;;;9.20;53.48;100207.88;8513428;33;20563;-73
2022/04/21 07:21:46;;;;;;;6.55;5.10;;;;;;;9.48;53.00;100216.44;8514143;33;20185;-73
2022/04/21 07:26:49;;;;;;;6.70;4.85;;;;;;;9.68;53.02;100215.72;8517000;33;20152;-73
2022/04/21 07:31:54;;;;;;;6.85;4.40;;;;;;;9.55;52.74;100212.31;8519764;33;20455;-72
2022/04/21 07:36:57;;;;;;;7.68;5.25;;;;;;;9.51;53.01;100214.34;8517070;33;20441;-73
2022/04/21 07:42:00;;;;;;;7.23;5.40;;;;;;;9.60;53.01;100218.16;8526363;33;20934;-73
2022/04/21 07:47:07;;;;;;;8.50;4.90;;;;;;;9.53;53.04;100208.03;8523078;33;20186;-73
2022/04/21 07:57:31;;;;;;;9.52;5.18;;;;;;;9.06;54.30;100218.84;8518246;33;20434;-72
2022/04/21 08:02:38;;;;;;;9.20;4.90;;;;;;;9.13;53.93;100222.72;8520137;33;20561;-72
2022/04/21 08:07:41;;;;;;;8.60;5.45;;;;;;;9.06;53.98;100234.91;8516807;33;20633;-73
2022/04/21 08:12:47;;;;;;;7.78;5.43;;;;;;;9.11;54.44;100232.72;8523958;33;20447;-72
2022/04/21 08:17:52;;;;;;;6.70;5.28;;;;;;;9.12;53.84;100226.38;8533382;33;20222;-73
2022/04/21 08:22:55;;;;;;;9.43;5.90;;;;;;;9.32;53.48;100222.16;8524044;33;20190;-72
2022/04/21 08:33:21;;;;;;;7.57;5.35;;;;;;;10.06;52.31;100205.56;8520938;33;20241;-73
2022/04/21 08:38:24;;;;;;;7.10;5.60;;;;;;;10.34;51.57;100207.69;8540633;33;20442;-72
2022/04/21 08:43:30;;;;;;;8.02;5.65;;;;;;;10.26;51.77;100206.63;8518011;33;21117;-74
2022/04/21 08:48:35;;;;;;;6.97;5.65;;;;;;;10.07;51.86;100220.72;8546775;33;20563;-73
2022/04/21 08:53:39;;;;;;;9.38;5.60;;;;;;;10.16;52.08;100209.22;8525415;33;20441;-73
2022/04/21 08:58:42;;;;;;;8.68;5.05;;;;;;;10.27;51.95;100213.69;8548030;27;20567;-73
2022/04/21 09:03:49;;;;;;;8.02;5.60;;;;;;;10.66;51.51;100205.97;8524964;33;20532;-73
2022/04/21 09:09:14;;;;;;;7.53;5.13;;;;;;;11.06;50.54;100206.13;8526113;33;20152;-73
2022/04/21 09:14:20;;;;;;;7.75;5.43;;;;;;;11.09;49.87;100208.53;8525972;33;20621;-73
2022/04/21 09:19:25;;;;;;;11.52;6.00;;;;;;;11.17;50.02;100211.47;8504528;33;20164;-73
2022/04/21 09:24:28;;;;;;;7.55;5.57;;;;;;;11.34;49.75;100201.09;8529195;33;20779;-73
2022/04/21 09:29:31;;;;;;;9.52;5.90;;;;;;;12.11;48.66;100201.34;8541496;33;20125;-73
2022/04/21 09:34:37;;;;;;;7.97;5.50;;;;;;;13.34;46.88;100200.75;8542471;33;20132;-72
2022/04/21 09:39:50;;;;;;;6.95;5.20;;;;;;;14.57;44.56;100194.16;8522163;33;20413;-72
2022/04/21 09:50:26;;;;;;;8.27;5.95;;;;;;;14.93;42.97;100204.94;8514684;33;20149;-72
2022/04/21 09:55:31;;;;;;;8.13;5.47;;;;;;;15.59;42.12;100195.41;8529793;33;20465;-72
2022/04/21 10:00:36;;;;;;;10.10;5.55;;;;;;;15.79;41.09;100194.13;8530960;33;20543;-72
2022/04/21 10:05:42;;;;;;;5.57;4.45;;;;;;;14.88;42.46;100188.31;8529888;33;20416;-73
2022/04/21 10:10:47;;;;;;;8.15;5.43;;;;;;;14.80;42.32;100195.34;8544934;33;20243;-72
2022/04/21 10:15:52;;;;;;;6.47;5.28;;;;;;;14.16;42.84;100191.84;8581853;33;20147;-72
2022/04/21 10:20:56;;;;;;;9.27;5.63;;;;;;;13.84;43.99;100188.78;8578074;33;20421;-72
2022/04/21 10:26:01;;;;;;;6.88;4.90;;;;;;;14.00;44.10;100188.97;8575189;33;20419;-72
2022/04/21 10:31:33;;;;;;;8.98;5.05;;;;;;;13.98;44.72;100190.13;8575263;33;20234;-72
2022/04/21 10:36:47;;;;;;;7.30;4.88;;;;;;;13.73;44.23;100170.94;8574622;33;20143;-72
2022/04/21 10:42:07;;;;;;;10.32;5.78;;;;;;;14.05;44.84;100165.06;8576029;33;20144;-72
2022/04/21 10:47:35;;;;;;;8.13;5.38;;;;;;;14.11;44.61;100164.44;8571941;33;20427;-72
2022/04/21 10:58:57;;;;;;;8.00;4.97;;;;;;;16.93;40.79;100169.13;8573918;33;20580;-72
2022/04/21 11:04:11;;;;;;;8.45;5.45;;;;;;;17.31;39.24;100164.00;8542657;33;20453;-73
2022/04/21 11:09:42;;;;;;;9.07;5.47;;;;;;;16.74;39.86;100150.47;8573723;33;20282;-72
2022/04/21 11:15:35;;;;;;;8.63;6.45;;;;;;;16.58;40.52;100157.59;8573818;33;20931;-72
2022/04/21 11:20:40;;;;;;;8.70;5.63;;;;;;;16.84;40.33;100148.44;8572865;33;20452;-72
2022/04/21 11:25:45;;;;;;;9.68;6.18;;;;;;;18.03;38.93;100135.88;8571436;33;20922;-73
2022/04/21 11:30:48;;;;;;;9.95;7.15;;;;;;;19.06;37.98;100138.13;8566409;33;21052;-72
2022/04/21 11:36:03;;;;;;;12.15;6.40;;;;;;;19.14;37.29;100142.63;8567095;33;20655;-73
2022/04/21 11:41:10;;;;;;;9.07;5.70;;;;;;;18.73;36.64;100123.94;8567521;33;20205;-72
2022/04/21 11:46:13;;;;;;;8.77;5.50;;;;;;;19.72;36.13;100119.19;8569038;33;20141;-72
2022/04/21 11:51:24;;;;;;;9.32;5.70;;;;;;;20.63;34.47;100129.59;8574205;33;20547;-72
2022/04/21 11:56:29;;;;;;;7.55;6.38;;;;;;;21.36;33.37;100119.22;8579024;33;20435;-73
2022/04/21 12:06:55;;;;;;;8.48;5.40;;;;;;;21.64;33.21;100117.28;8580055;33;20321;-73
2022/04/21 12:12:02;;;;;;;8.15;5.70;;;;;;;22.52;33.08;100111.03;8584894;33;20956;-73
2022/04/21 12:17:06;;;;;;;7.68;5.65;;;;;;;22.94;31.53;100111.66;8583034;33;20406;-73
2022/04/21 12:22:13;;;;;;;8.25;5.82;;;;;;;19.88;35.06;100118.97;8579724;33;20418;-72
2022/04/21 12:27:19;;;;;;;8.82;6.22;;;;;;;18.68;37.40;100107.34;8586021;33;20140;-73
2022/04/21 12:32:24;;;;;;;10.68;6.25;;;;;;;20.38;36.36;100101.88;8594489;33;20569;-73
2022/04/21 12:37:28;;;;;;;10.25;6.57;;;;;;;21.84;33.46;100095.50;8583119;33;20144;-73
2022/04/21 12:42:33;;;;;;;9.68;5.97;;;;;;;20.44;35.52;100093.75;8584074;33;20413;-73
2022/04/21 12:47:43;;;;;;;6.95;5.50;;;;;;;19.53;36.29;100087.91;8582159;33;20551;-73
2022/04/21 12:52:49;;;;;;;8.43;5.97;;;;;;;19.29;36.66;100075.41;8583625;33;20944;-73
2022/04/21 12:58:02;;;;;;;10.40;6.25;;;;;;;18.91;37.50;100091.00;8582602;33;20410;-73
2022/04/21 13:03:06;;;;;;;9.98;6.10;;;;;;;18.53;38.49;100080.09;8586780;33;20428;-74
2022/04/21 13:08:10;;;;;;;12.27;6.00;;;;;;;18.21;38.99;100082.09;8597034;33;20214;-74
2022/04/21 13:13:14;;;;;;;8.38;6.07;;;;;;;18.07;39.29;100069.25;8595807;33;20608;-73
2022/04/21 13:18:18;;;;;;;8.52;6.30;;;;;;;17.50;40.50;100069.56;8600672;33;20564;-73
2022/04/21 13:23:24;;;;;;;14.45;6.70;;;;;;;17.57;40.51;100056.97;8599044;33;20140;-73
2022/04/21 13:28:28;;;;;;;10.07;6.20;;;;;;;17.93;40.47;100058.09;8601296;33;20679;-73
2022/04/21 13:33:36;;;;;;;11.10;6.50;;;;;;;17.23;41.73;100058.16;8605248;33;20451;-73
2022/04/21 13:38:39;;;;;;;8.93;5.80;;;;;;;17.05;41.99;100050.22;8603920;33;20239;-73
2022/04/21 13:43:43;;;;;;;7.80;5.78;;;;;;;16.84;42.16;100055.34;8601586;33;20147;-73
2022/04/21 13:49:07;;;;;;;7.30;5.15;;;;;;;16.45;43.24;100048.81;8595957;33;20415;-73
2022/04/21 13:54:13;;;;;;;8.60;4.93;;;;;;;16.22;43.53;100055.91;8596838;33;20432;-73
2022/04/21 13:59:18;;;;;;;8.68;4.82;;;;;;;15.80;43.76;100065.84;8586544;33;20409;-73
2022/04/21 14:04:21;;;;;;;8.02;4.53;;;;;;;15.46;43.63;100061.34;8589598;33;20269;-72
2022/04/21 14:09:24;;;;;;;6.50;3.92;;;;;;;15.62;43.68;100057.00;8569239;33;20163;-72
2022/04/21 14:14:29;;;;;;;6.63;4.28;;;;;;;16.08;42.23;100054.72;8550256;33;20286;-72
2022/04/21 14:19:33;;;;;;;5.13;3.45;;;;;;;16.27;41.88;100048.16;8562799;33;20183;-72
2022/04/21 14:24:37;;;;;;;5.75;3.75;;;;;;;16.20;42.75;100044.38;8579680;33;20156;-72
2022/04/21 14:29:41;;;;;;;5.18;3.60;;;;;;;17.41;40.43;100037.03;8579060;33;20136;-72
2022/04/21 14:34:45;;;;;;;5.80;4.18;;;;;;;16.72;40.52;100036.72;8579265;33;21011;-72
2022/04/21 14:45:10;;;;;;;6.28;3.92;;;;;;;16.59;41.59;100021.03;8576893;33;20413;-73
2022/04/21 14:50:15;;;;;;;7.15;3.88;;;;;;;16.01;42.65;100013.06;8579393;33;20487;-74
2022/04/21 14:55:18;;;;;;;5.90;3.15;;;;;;;15.40;44.12;100012.44;8579056;33;20918;-74
2022/04/21 15:00:23;;;;;;;7.32;4.50;;;;;;;15.07;44.81;100012.31;8580028;28;20539;-72
2022/04/21 15:05:26;;;;;;;5.65;3.75;;;;;;;14.88;45.01;100007.16;8466203;34;20153;-72
2022/04/21 15:10:29;;;;;;;6.72;3.80;;;;;;;14.78;45.44;100007.25;8465305;34;20709;-73
2022/04/21 15:15:34;;;;;;;6.40;4.32;;;;;;;14.57;45.73;100008.50;8464410;34;20196;-72
2022/04/21 15:20:38;;;;;;;4.78;3.60;;;;;;;14.32;46.00;99999.34;8465727;34;20142;-72
2022/04/21 15:25:41;;;;;;;5.75;3.50;;;;;;;14.30;46.28;100000.50;8464580;34;20229;-72
2022/04/21 15:30:46;;;;;;;4.68;3.42;;;;;;;14.33;46.72;99998.34;8466138;34;21175;-72
2022/04/21 15:35:49;;;;;;;6.53;3.35;;;;;;;14.07;47.37;100003.72;8464292;34;20146;-74
2022/04/21 15:40:52;;;;;;;6.45;3.40;;;;;;;14.09;47.25;100007.09;8464178;34;20245;-74
2022/04/21 15:45:56;;;;;;;5.15;3.53;;;;;;;13.69;47.83;100004.91;8471323;34;20268;-74
2022/04/21 15:51:02;;;;;;;3.83;3.43;;;;;;;13.67;47.97;100010.44;8472609;34;20514;-74
2022/04/21 16:01:29;;;;;;;7.85;4.72;;;;;;;13.71;47.50;100008.28;8473902;33;20987;-74
2022/04/21 16:06:33;;;;;;;5.50;3.85;;;;;;;13.68;47.47;100003.19;8475830;33;20433;-74
2022/04/21 16:11:36;;;;;;;6.38;3.65;;;;;;;13.60;47.71;100016.59;8472157;33;20281;-74
2022/04/21 16:16:40;;;;;;;5.80;3.63;;;;;;;13.53;48.09;100010.97;8496104;33;20299;-74
2022/04/21 16:21:44;;;;;;;6.53;4.10;;;;;;;13.63;47.78;100016.28;8498264;33;20437;-74
2022/04/21 16:26:47;;;;;;;8.57;4.13;;;;;;;13.62;48.03;100009.19;8471067;33;20239;-74
2022/04/21 16:31:55;;;;;;;5.72;4.55;;;;;;;13.69;48.43;100013.00;8495710;33;20560;-73
2022/04/21 16:36:58;;;;;;;5.25;3.72;;;;;;;13.57;48.25;100011.50;8491066;33;20465;-73
2022/04/21 16:42:02;;;;;;;7.80;4.38;;;;;;;13.56;48.72;100007.13;8499626;33;20547;-74
2022/04/21 16:47:07;;;;;;;7.82;4.57;;;;;;;13.52;48.99;100012.00;8499547;33;20239;-73
2022/04/21 16:52:10;;;;;;;8.40;5.38;;;;;;;13.28;48.87;100010.66;8503770;33;20165;-74
2022/04/21 16:57:13;;;;;;;7.63;4.88;;;;;;;13.23;48.99;100006.72;8509536;33;20149;-74
2022/04/21 17:07:38;;;;;;;10.48;5.50;;;;;;;13.32;49.23;100008.50;8545409;33;20648;-73
2022/04/21 17:12:41;;;;;;;7.97;4.95;;;;;;;13.37;48.99;100011.63;8540205;33;20179;-74
2022/04/21 17:17:45;;;;;;;10.93;6.20;;;;;;;13.10;49.00;100007.06;8515658;33;20288;-74
2022/04/21 17:22:49;;;;;;;10.50;5.68;;;;;;;12.96;49.46;100023.75;8514194;33;20423;-73
2022/04/21 17:27:52;;;;;;;8.02;5.78;;;;;;;12.85;49.88;100021.25;8494611;33;20146;-73
2022/04/21 17:32:56;;;;;;;7.80;5.25;;;;;;;12.76;50.73;100020.28;8483235;34;20258;-73
2022/04/21 17:37:59;;;;;;;8.25;5.43;;;;;;;12.66;50.65;100027.53;8481646;34;20503;-74
2022/04/21 17:43:02;;;;;;;8.40;5.38;;;;;;;12.66;50.79;100025.69;8474434;34;20893;-73
2022/04/21 17:48:27;;;;;;;9.40;5.53;;;;;;;12.55;51.27;100026.72;8468283;34;20615;-74
2022/04/21 17:53:30;;;;;;;8.63;5.50;;;;;;;12.48;51.42;100025.63;8470580;34;21083;-74
2022/04/21 17:58:33;;;;;;;8.57;5.43;;;;;;;12.43;51.51;100032.44;8473773;34;20449;-72
2022/04/21 18:03:39;;;;;;;8.25;5.93;;;;;;;12.36;51.90;100024.06;8491946;33;20493;-73
2022/04/21 18:08:42;;;;;;;7.00;5.38;;;;;;;12.33;52.18;100032.44;8498987;33;20442;-73
2022/04/21 18:13:46;;;;;;;10.05;6.57;;;;;;;12.08;52.66;100041.94;8504517;33;20422;-72
2022/04/21 18:18:50;;;;;;;9.18;6.55;;;;;;;12.03;52.70;100036.13;8499247;33;20263;-73
2022/04/21 18:23:53;;;;;;;9.30;6.90;;;;;;;11.89;53.46;100038.25;8495607;33;20515;-73
2022/04/21 18:28:56;;;;;;;10.80;6.35;;;;;;;11.76;53.85;100034.97;8490529;33;20414;-73
2022/04/21 18:34:03;;;;;;;8.90;5.60;;;;;;;11.69;54.19;100023.94;8494860;33;20421;-73
2022/04/21 18:39:06;;;;;;;7.10;5.60;;;;;;;11.63;54.52;100031.72;8497419;33;20609;-72
2022/04/21 18:44:09;;;;;;;12.82;6.63;;;;;;;11.59;54.71;100020.38;8495386;33;20243;-73
2022/04/21 18:49:13;;;;;;;13.07;5.75;;;;;;;11.58;55.08;100025.91;8494236;33;20933;-73
2022/04/21 18:54:17;;;;;;;7.38;5.53;;;;;;;11.61;54.94;100026.47;8492270;33;20427;-72
2022/04/21 18:59:20;;;;;;;12.07;6.25;;;;;;;11.46;55.34;100025.16;8493101;33;20146;-73
2022/04/21 19:04:24;;;;;;;8.73;6.45;;;;;;;11.63;55.08;100018.28;8497664;33;20153;-73
2022/04/21 19:14:51;;;;;;;12.73;6.28;;;;;;;11.44;56.32;100011.88;8489814;33;20162;-73
2022/04/21 19:19:56;;;;;;;9.75;6.53;;;;;;;11.34;56.66;100015.53;8473048;33;20145;-73
2022/04/21 19:25:00;;;;;;;10.57;6.43;;;;;;;11.19;57.17;100012.38;8493137;33;20496;-72
2022/04/21 19:30:04;;;;;;;11.13;7.97;;;;;;;11.32;57.08;100022.88;8497716;33;20192;-72
2022/04/21 19:35:11;;;;;;;10.05;7.05;;;;;;;11.32;57.60;100020.19;8498232;33;20149;-72
2022/04/21 19:40:14;;;;;;;12.35;8.75;;;;;;;11.19;57.62;100018.63;8496001;33;20425;-73
2022/04/21 19:45:18;;;;;;;13.63;8.52;;;;;;;11.34;57.09;100015.53;8495991;33;20614;-73
2022/04/21 19:50:24;;;;;;;13.45;8.43;;;;;;;11.30;57.74;100004.22;8525775;33;20159;-72
2022/04/21 19:55:28;;;;;;;13.07;8.95;;;;;;;11.29;57.70;100015.94;8525692;33;20445;-73
2022/04/21 20:00:31;;;;;;;19.45;10.15;;;;;;;11.25;57.96;100001.09;8502811;33;20528;-72
2022/04/21 20:11:16;;;;;;;16.38;10.05;;;;;;;11.30;58.18;100006.03;8484540;33;20530;-72
2022/04/21 20:16:20;;;;;;;14.52;9.55;;;;;;;11.27;58.29;100004.47;8494488;33;20523;-73
2022/04/21 20:26:46;;;;;;;14.80;9.70;;;;;;;11.02;58.51;100005.78;8470642;33;20419;-74
2022/04/21 20:31:49;;;;;;;14.88;8.52;;;;;;;11.06;58.76;99993.78;8467029;34;20416;-72
2022/04/21 20:36:53;;;;;;;12.50;8.95;;;;;;;11.01;59.07;99996.03;8466072;34;20453;-74
2022/04/21 20:41:56;;;;;;;15.63;8.93;;;;;;;11.02;58.98;99995.03;8464241;34;20439;-74
2022/04/21 20:47:00;;;;;;;16.35;9.00;;;;;;;10.86;59.26;99983.94;8490625;33;20291;-72
2022/04/21 20:52:07;;;;;;;15.38;8.90;;;;;;;11.09;58.97;99992.66;8497522;33;20212;-73
2022/04/21 20:57:13;;;;;;;13.57;8.77;;;;;;;11.02;59.05;99990.50;8496041;33;21311;-73
2022/04/21 21:02:17;;;;;;;13.07;7.85;;;;;;;11.04;59.17;99998.44;8494853;33;20650;-72
2022/04/21 21:07:22;;;;;;;14.23;7.97;;;;;;;10.95;59.47;99984.00;8497513;33;20421;-71
2022/04/21 21:12:25;;;;;;;14.05;8.02;;;;;;;10.96;59.34;99999.13;8497145;33;20689;-71
2022/04/21 21:17:28;;;;;;;12.80;8.18;;;;;;;10.99;59.38;99993.47;8495388;33;20192;-72
2022/04/21 21:22:32;;;;;;;10.80;8.23;;;;;;;10.92;59.58;99992.31;8489786;33;20291;-71
2022/04/21 21:27:36;;;;;;;15.07;8.55;;;;;;;10.83;59.85;99990.44;8491812;33;21020;-72
2022/04/21 21:32:40;;;;;;;18.63;10.05;;;;;;;10.80;60.27;99991.56;8496051;33;20595;-72
2022/04/21 21:37:45;;;;;;;16.08;9.75;;;;;;;10.89;59.89;99986.34;8496478;33;20523;-71
2022/04/21 21:42:48;;;;;;;15.75;10.15;;;;;;;10.84;60.04;99990.31;8500725;33;20471;-72
2022/04/21 21:47:51;;;;;;;16.50;10.57;;;;;;;10.81;60.25;99987.91;8464850;33;20438;-71
2022/04/21 21:52:59;;;;;;;15.63;9.57;;;;;;;10.76;60.39;99990.13;8474731;34;20460;-71
2022/04/21 21:58:04;;;;;;;14.35;10.32;;;;;;;10.79;60.38;99995.25;8483079;34;20803;-71
2022/04/21 22:03:14;;;;;;;12.93;9.30;;;;;;;10.90;60.35;99986.22;9041394;32;20487;-71
2022/04/21 22:08:17;;;;;;;14.68;9.10;;;;;;;10.92;60.34;99984.25;8951651;32;20155;-72
2022/04/21 22:13:20;;;;;;;18.52;11.10;;;;;;;10.74;61.24;99985.88;8895041;33;20241;-71
2022/04/21 22:18:24;;;;;;;17.92;10.75;;;;;;;10.82;61.11;99978.00;8893786;32;20654;-72
2022/04/21 22:23:27;;;;;;;20.38;13.48;;;;;;;10.64;61.68;99974.25;8893504;32;20515;-72
2022/04/21 22:28:30;;;;;;;21.90;13.27;;;;;;;10.73;61.63;99984.19;8893850;32;20135;-72
2022/04/21 22:33:36;;;;;;;22.45;12.43;;;;;;;10.74;61.81;99975.13;8891048;33;20332;-72
2022/04/21 22:38:39;;;;;;;22.15;13.27;;;;;;;10.73;62.10;99971.63;8893461;32;20241;-72
2022/04/21 22:43:42;;;;;;;21.42;12.98;;;;;;;10.76;62.23;99960.59;8894510;33;20295;-72
2022/04/21 22:48:47;;;;;;;20.13;13.27;;;;;;;10.72;62.33;99959.16;8893966;32;20241;-72
2022/04/21 22:53:50;;;;;;;21.88;13.73;;;;;;;10.74;62.58;99965.25;8894437;33;20470;-72
2022/04/21 22:58:53;;;;;;;18.70;12.00;;;;;;;10.77;62.82;99961.44;8893555;32;20483;-72
2022/04/21 23:03:57;;;;;;;22.35;14.10;;;;;;;10.67;62.96;99968.59;8896500;33;20414;-72
2022/04/21 23:14:22;;;;;;;26.35;15.20;;;;;;;10.63;63.29;99959.13;8875066;32;20142;-72
2022/04/21 23:19:28;;;;;;;27.33;15.50;;;;;;;10.64;63.34;99953.63;8872712;32;20142;-73
2022/04/21 23:24:32;;;;;;;22.20;14.00;;;;;;;10.70;63.34;99942.34;8873481;32;20138;-72
2022/04/21 23:29:35;;;;;;;23.05;14.13;;;;;;;10.66;63.36;99937.34;8871098;33;20156;-72
2022/04/21 23:34:40;;;;;;;23.20;14.63;;;;;;;10.64;63.25;99937.50;8872092;32;20150;-72
2022/04/21 23:39:43;;;;;;;24.42;14.95;;;;;;;10.61;63.38;99935.94;8872502;32;20593;-73
2022/04/21 23:44:46;;;;;;;24.85;15.38;;;;;;;10.54;64.03;99936.63;8872908;32;20359;-73
2022/04/21 23:50:00;;;;;;;27.48;16.13;;;;;;;10.52;64.37;99927.84;8872059;32;21089;-72
2022/04/21 23:55:05;;;;;;;25.30;15.98;;;;;;;10.46;64.84;99918.50;8872467;32;20139;-72
